Time;durP1;ratioP1;P1;durP2;ratioP2;P2;SDS_P1;SDS_P2;PMS_P1;PMS_P2;Temp;Humidity;BMP_temperature;BMP_pressure;BME280_temperature;BME280_humidity;BME280_pressure;Samples;Min_cycle;Max_cycle;Signal;HPM_P1;HPM_P2
2024/02/18 00:00:08;;;;;;;16.60;4.78;;;;;;;9.53;100.00;102115.03;5080953;28;20032;-70
2024/02/18 00:02:34;;;;;;;17.17;4.65;;;;;;;9.51;100.00;102115.28;5079449;28;20049;-70
2024/02/18 00:05:01;;;;;;;13.32;4.22;;;;;;;9.54;100.00;102112.00;5087624;28;20035;-70
2024/02/18 00:07:27;;;;;;;20.50;4.30;;;;;;;9.55;100.00;102119.22;5059834;28;20035;-70
2024/02/18 00:09:53;;;;;;;14.10;3.95;;;;;;;9.55;100.00;102112.84;5063015;28;20033;-70
2024/02/18 00:12:18;;;;;;;10.55;4.93;;;;;;;9.55;100.00;102113.66;5059486;28;20027;-70
2024/02/18 00:14:44;;;;;;;13.38;4.05;;;;;;;9.54;100.00;102108.38;5080094;28;20024;-70
2024/02/18 00:17:09;;;;;;;17.27;4.70;;;;;;;9.54;100.00;102108.38;5039247;28;20538;-70
2024/02/18 00:19:35;;;;;;;14.18;3.88;;;;;;;9.54;100.00;102108.38;5054862;28;20037;-70
2024/02/18 00:22:00;;;;;;;13.90;5.07;;;;;;;9.53;100.00;102120.59;5060017;28;20043;-70
2024/02/18 00:24:26;;;;;;;10.10;4.28;;;;;;;9.54;100.00;102111.16;5080161;28;20020;-70
2024/02/18 00:26:52;;;;;;;11.57;3.97;;;;;;;9.54;100.00;102109.22;5060598;28;20089;-70
2024/02/18 00:29:18;;;;;;;18.70;4.22;;;;;;;9.54;100.00;102114.78;5070759;28;20028;-70
2024/02/18 00:31:43;;;;;;;17.30;5.40;;;;;;;9.53;100.00;102102.00;5043836;28;20036;-70
2024/02/18 00:34:09;;;;;;;10.68;3.97;;;;;;;9.55;100.00;102101.75;5079564;28;20027;-70
2024/02/18 00:36:35;;;;;;;14.93;4.78;;;;;;;9.52;100.00;102094.75;5084319;28;20032;-70
2024/02/18 00:39:01;;;;;;;13.32;4.32;;;;;;;9.52;100.00;102089.22;5076228;28;20028;-70
2024/02/18 00:41:26;;;;;;;16.75;5.75;;;;;;;9.51;100.00;102084.75;5051261;28;20073;-70
2024/02/18 00:43:51;;;;;;;13.70;5.50;;;;;;;9.49;100.00;102097.19;5049794;28;20040;-70
2024/02/18 00:46:17;;;;;;;13.65;4.57;;;;;;;9.49;100.00;102088.88;5085975;28;20032;-70
2024/02/18 00:48:42;;;;;;;10.77;4.10;;;;;;;9.51;100.00;102084.75;5085063;28;20036;-70
2024/02/18 00:51:08;;;;;;;11.85;4.45;;;;;;;9.51;100.00;102079.22;5045093;28;20078;-70
2024/02/18 00:53:33;;;;;;;13.07;4.97;;;;;;;9.49;100.00;102086.94;5072022;28;20028;-70
2024/02/18 00:55:59;;;;;;;12.95;4.68;;;;;;;9.48;100.00;102079.72;5062699;28;20409;-70
2024/02/18 00:58:24;;;;;;;10.35;4.68;;;;;;;9.48;100.00;102078.88;5065925;28;20028;-70
2024/02/18 01:00:50;;;;;;;13.70;4.28;;;;;;;9.46;100.00;102068.03;5045631;28;20031;-70
2024/02/18 01:03:15;;;;;;;15.65;5.20;;;;;;;9.50;100.00;102069.22;5055572;28;20032;-70
2024/02/18 01:05:41;;;;;;;11.63;4.93;;;;;;;9.48;100.00;102082.50;5045960;28;20039;-70
2024/02/18 01:08:06;;;;;;;10.35;5.30;;;;;;;9.44;100.00;102081.28;5097147;28;20024;-70
2024/02/18 01:10:31;;;;;;;16.30;5.15;;;;;;;9.44;100.00;102089.59;5079083;28;20024;-70
2024/02/18 01:12:57;;;;;;;9.95;4.53;;;;;;;9.44;100.00;102086.84;5065613;28;20033;-70
2024/02/18 01:15:22;;;;;;;15.60;4.68;;;;;;;9.42;100.00;102080.72;5077224;28;20082;-70
2024/02/18 01:17:48;;;;;;;12.27;4.35;;;;;;;9.39;100.00;102084.81;5068002;28;20028;-70
2024/02/18 01:20:13;;;;;;;12.93;4.38;;;;;;;9.37;100.00;102080.63;5061808;28;20036;-70
2024/02/18 01:22:39;;;;;;;11.05;4.20;;;;;;;9.36;100.00;102073.38;5068025;28;20563;-70
2024/02/18 01:25:05;;;;;;;12.23;3.60;;;;;;;9.34;100.00;102076.41;5068546;28;20040;-70
2024/02/18 01:27:30;;;;;;;11.98;3.75;;;;;;;9.34;100.00;102078.34;5065315;28;20017;-70
2024/02/18 01:29:56;;;;;;;11.23;3.53;;;;;;;9.34;100.00;102065.31;5086884;28;20028;-70
2024/02/18 01:32:21;;;;;;;13.43;3.78;;;;;;;9.32;100.00;102053.63;5085198;28;20077;-70
2024/02/18 01:34:47;;;;;;;14.05;3.90;;;;;;;9.32;100.00;102048.06;5062221;28;20099;-70
2024/02/18 01:37:12;;;;;;;9.00;3.33;;;;;;;9.28;100.00;102054.38;5084268;28;20027;-70
2024/02/18 01:39:38;;;;;;;14.93;3.97;;;;;;;9.30;100.00;102047.47;5096808;28;20548;-70
2024/02/18 01:42:04;;;;;;;12.13;3.42;;;;;;;9.28;100.00;102041.34;5067583;28;20032;-70
2024/02/18 01:44:29;;;;;;;15.63;3.13;;;;;;;9.25;100.00;102046.53;5050779;28;20074;-70
2024/02/18 01:46:54;;;;;;;7.15;2.72;;;;;;;9.24;100.00;102051.25;5042508;28;20039;-70
2024/02/18 01:49:20;;;;;;;10.43;3.17;;;;;;;9.22;100.00;102033.16;5033185;28;20560;-70
2024/02/18 01:51:46;;;;;;;6.70;2.67;;;;;;;9.17;100.00;102032.00;5043447;28;20501;-70
2024/02/18 01:54:12;;;;;;;11.63;3.40;;;;;;;9.22;100.00;102028.50;5032619;28;20039;-70
2024/02/18 01:56:38;;;;;;;10.15;3.03;;;;;;;9.18;100.00;102019.81;5060483;28;20410;-70
2024/02/18 01:59:03;;;;;;;10.63;3.15;;;;;;;9.16;100.00;102022.00;5024606;28;20025;-70
2024/02/18 02:01:29;;;;;;;15.57;3.35;;;;;;;9.17;100.00;102018.13;5041842;28;20032;-70
2024/02/18 02:03:56;;;;;;;10.55;2.45;;;;;;;9.16;100.00;102008.16;5049757;28;20063;-70
2024/02/18 02:06:21;;;;;;;12.32;3.25;;;;;;;9.14;100.00;102002.00;5023796;28;20617;-70
2024/02/18 02:08:47;;;;;;;10.77;3.97;;;;;;;9.14;100.00;101993.69;5038101;28;20025;-70
2024/02/18 02:11:13;;;;;;;14.50;3.63;;;;;;;9.13;100.00;102000.31;5054795;28;20024;-70
2024/02/18 02:13:39;;;;;;;11.98;3.35;;;;;;;9.14;100.00;101990.91;5036569;28;20030;-70
2024/02/18 02:16:05;;;;;;;9.45;3.63;;;;;;;9.10;100.00;101989.72;5019667;28;20032;-70
2024/02/18 02:18:30;;;;;;;11.13;3.17;;;;;;;9.11;100.00;101991.41;5036867;28;20036;-70
2024/02/18 02:20:56;;;;;;;11.68;2.95;;;;;;;9.08;100.00;101997.47;5034989;28;20038;-70
2024/02/18 02:23:21;;;;;;;11.70;2.85;;;;;;;9.09;100.00;101988.03;5037622;28;20063;-70
2024/02/18 02:25:47;;;;;;;9.23;2.67;;;;;;;9.12;100.00;101982.00;5034777;28;20044;-70
2024/02/18 02:28:20;;;;;;;15.60;3.22;;;;;;;9.09;100.00;101998.31;5023363;28;20030;-70
2024/02/18 02:30:46;;;;;;;;;;;;;;;9.09;100.00;102001.91;5055709;28;20029;-70
2024/02/18 02:33:12;;;;;;;13.98;3.10;;;;;;;9.10;100.00;102006.34;5054058;28;20312;-71
2024/02/18 02:35:37;;;;;;;15.93;4.13;;;;;;;9.10;100.00;102006.34;5036404;28;20044;-70
2024/02/18 02:38:03;;;;;;;15.50;3.55;;;;;;;9.11;100.00;102002.50;5026327;28;20032;-70
2024/02/18 02:40:28;;;;;;;7.38;2.95;;;;;;;9.12;100.00;102009.72;5054353;28;20029;-70
2024/02/18 02:42:54;;;;;;;14.57;2.85;;;;;;;9.09;100.00;102013.00;5026340;28;20436;-70
2024/02/18 02:45:19;;;;;;;14.45;3.58;;;;;;;9.09;100.00;102004.69;5046826;28;20044;-69
2024/02/18 02:47:45;;;;;;;11.82;3.28;;;;;;;9.10;100.00;102003.56;5030860;28;20048;-70
2024/02/18 02:50:10;;;;;;;10.50;2.88;;;;;;;9.13;100.00;102007.78;5022568;28;20041;-70
2024/02/18 02:52:39;;;;;;;7.32;2.90;;;;;;;9.11;100.00;102012.72;5051131;28;20044;-70
2024/02/18 02:55:05;;;;;;;11.18;3.00;;;;;;;9.09;100.00;102004.69;5023139;28;20104;-70
2024/02/18 02:57:30;;;;;;;10.38;2.88;;;;;;;9.09;100.00;102010.22;5035877;28;20033;-70
2024/02/18 02:59:56;;;;;;;14.05;3.67;;;;;;;9.10;100.00;102011.91;5041467;28;20087;-70
2024/02/18 03:02:21;;;;;;;15.73;3.40;;;;;;;9.12;100.00;101998.63;5033971;28;20034;-70
2024/02/18 03:04:47;;;;;;;9.30;3.00;;;;;;;9.09;100.00;101990.81;5041247;28;20074;-70
2024/02/18 03:07:12;;;;;;;12.23;2.75;;;;;;;9.11;100.00;101994.19;5053481;28;20033;-70
2024/02/18 03:09:38;;;;;;;14.93;3.35;;;;;;;9.06;100.00;101984.94;5054821;28;20715;-70
2024/02/18 03:12:03;;;;;;;8.27;3.13;;;;;;;9.07;100.00;101983.84;5039368;28;20025;-70
2024/02/18 03:14:29;;;;;;;11.02;2.92;;;;;;;9.07;100.00;101970.81;5040108;28;20585;-70
2024/02/18 03:16:56;;;;;;;8.68;3.25;;;;;;;9.12;100.00;101964.53;5036439;28;20420;-70
2024/02/18 03:19:21;;;;;;;9.95;3.90;;;;;;;9.10;100.00;101972.25;5022322;28;20116;-70
2024/02/18 03:21:47;;;;;;;9.20;3.88;;;;;;;9.12;100.00;101973.69;5024739;28;20047;-70
2024/02/18 03:24:12;;;;;;;10.43;4.15;;;;;;;9.09;100.00;101971.41;5020202;28;20029;-70
2024/02/18 03:26:38;;;;;;;10.13;3.80;;;;;;;9.12;100.00;101975.63;5036589;28;20025;-70
2024/02/18 03:29:03;;;;;;;13.98;3.92;;;;;;;9.13;100.00;101967.03;5038188;28;20025;-70
2024/02/18 03:31:29;;;;;;;10.13;3.83;;;;;;;9.15;100.00;101961.25;5045440;28;20063;-70
2024/02/18 03:33:55;;;;;;;11.32;3.92;;;;;;;9.13;100.00;101960.66;5036606;28;20021;-70
2024/02/18 03:36:21;;;;;;;9.05;3.95;;;;;;;9.13;100.00;101963.44;5040849;28;20025;-70
2024/02/18 03:38:46;;;;;;;12.45;4.38;;;;;;;9.14;100.00;101963.22;5034189;28;20027;-70
2024/02/18 03:41:11;;;;;;;13.50;4.30;;;;;;;9.15;100.00;101948.25;5054408;28;20044;-70
2024/02/18 03:43:39;;;;;;;14.48;4.20;;;;;;;9.14;100.00;101934.66;5012377;28;20477;-70
2024/02/18 03:46:04;;;;;;;14.98;4.40;;;;;;;9.13;100.00;101933.78;5036369;28;20033;-70
2024/02/18 03:48:29;;;;;;;13.60;4.47;;;;;;;9.13;100.00;101922.69;5008726;28;20060;-70
2024/02/18 03:50:55;;;;;;;9.52;4.20;;;;;;;9.13;100.00;101928.25;5020231;28;20100;-70
2024/02/18 03:53:20;;;;;;;10.82;3.78;;;;;;;9.13;100.00;101941.25;5035923;28;20036;-70
2024/02/18 03:55:46;;;;;;;17.20;5.93;;;;;;;9.16;100.00;101940.75;5036562;28;20032;-70
2024/02/18 03:58:13;;;;;;;12.38;4.35;;;;;;;9.14;100.00;101935.50;5053180;28;20449;-70
2024/02/18 04:00:41;;;;;;;14.05;4.18;;;;;;;9.15;100.00;101926.06;5020106;28;20021;-70
2024/02/18 04:03:07;;;;;;;9.88;3.97;;;;;;;9.12;100.00;101934.88;5027579;28;20047;-70
2024/02/18 04:05:32;;;;;;;13.88;4.40;;;;;;;9.15;100.00;101936.31;5036252;28;20569;-70
2024/02/18 04:07:58;;;;;;;11.70;4.20;;;;;;;9.16;100.00;101919.47;5036395;28;20033;-70
2024/02/18 04:10:25;;;;;;;6.60;3.47;;;;;;;9.18;100.00;101913.66;5036294;28;20440;-70
2024/02/18 04:12:50;;;;;;;9.23;3.55;;;;;;;9.20;100.00;101902.31;5036587;28;20032;-70
2024/02/18 04:15:17;;;;;;;13.65;3.50;;;;;;;9.20;100.00;101899.53;5058888;28;20028;-70
2024/02/18 04:17:42;;;;;;;10.02;3.53;;;;;;;9.18;100.00;101897.84;5056600;28;20036;-70
2024/02/18 04:20:09;;;;;;;11.65;4.05;;;;;;;9.20;100.00;101880.97;5075544;28;20029;-70
2024/02/18 04:22:34;;;;;;;8.80;4.05;;;;;;;9.18;100.00;101883.16;5023322;28;20036;-70
2024/02/18 04:25:00;;;;;;;13.27;4.38;;;;;;;9.21;100.00;101890.13;5054739;28;20490;-70
2024/02/18 04:27:26;;;;;;;17.67;4.72;;;;;;;9.22;100.00;101883.47;5039797;28;20095;-70
2024/02/18 04:29:51;;;;;;;13.45;3.95;;;;;;;9.24;100.00;101886.84;5040765;28;20037;-70
2024/02/18 04:32:17;;;;;;;7.28;3.45;;;;;;;9.23;100.00;101882.41;5039777;28;20032;-70
2024/02/18 04:34:44;;;;;;;9.00;3.85;;;;;;;9.24;100.00;101897.94;5056395;28;20037;-70
2024/02/18 04:37:09;;;;;;;9.10;4.25;;;;;;;9.22;100.00;101894.56;5039789;28;20035;-70
2024/02/18 04:39:35;;;;;;;13.13;4.35;;;;;;;9.25;100.00;101907.94;5056371;28;20033;-70
2024/02/18 04:42:00;;;;;;;17.15;4.43;;;;;;;9.25;100.00;101906.03;5023284;28;20078;-70
2024/02/18 04:44:26;;;;;;;15.32;4.30;;;;;;;9.26;100.00;101916.00;5045769;28;20025;-70
2024/02/18 04:46:51;;;;;;;12.20;4.80;;;;;;;9.27;100.00;101916.84;5065534;28;20575;-70
2024/02/18 04:49:17;;;;;;;11.20;4.07;;;;;;;9.27;100.00;101916.84;5051979;28;20052;-70
2024/02/18 04:51:42;;;;;;;8.60;3.83;;;;;;;9.27;100.00;101909.34;5038431;28;20032;-70
2024/02/18 04:54:08;;;;;;;10.88;4.28;;;;;;;9.27;100.00;101900.22;5034903;28;20038;-70
2024/02/18 04:56:33;;;;;;;12.02;4.25;;;;;;;9.29;100.00;101900.81;5056212;28;20025;-70
2024/02/18 04:58:58;;;;;;;13.77;4.40;;;;;;;9.30;100.00;101896.94;5039483;28;20036;-70
2024/02/18 05:01:24;;;;;;;13.35;4.00;;;;;;;9.31;100.00;101891.16;5039005;28;20029;-70
2024/02/18 05:03:49;;;;;;;12.25;4.35;;;;;;;9.32;100.00;101903.06;5063604;28;20473;-71
2024/02/18 05:06:15;;;;;;;14.10;4.80;;;;;;;9.33;100.00;101904.75;5022865;28;20025;-70
2024/02/18 05:08:40;;;;;;;20.30;4.88;;;;;;;9.34;100.00;101907.28;5039051;28;20032;-70
2024/02/18 05:11:06;;;;;;;14.90;4.45;;;;;;;9.35;100.00;101908.09;5057401;28;20473;-70
2024/02/18 05:13:31;;;;;;;12.48;5.57;;;;;;;9.35;100.00;101894.25;5055562;28;20033;-70
2024/02/18 05:15:57;;;;;;;8.77;4.10;;;;;;;9.35;100.00;101888.69;5022745;28;20413;-70
2024/02/18 05:18:22;;;;;;;13.90;4.38;;;;;;;9.33;100.00;101896.41;5055341;28;20028;-70
2024/02/18 05:20:48;;;;;;;7.38;4.07;;;;;;;9.34;100.00;101889.81;5028386;28;20258;-70
2024/02/18 05:23:13;;;;;;;14.95;4.22;;;;;;;9.33;100.00;101894.50;5005701;28;20021;-70
2024/02/18 05:25:39;;;;;;;14.93;4.00;;;;;;;9.34;100.00;101885.09;5022093;28;20037;-70
2024/02/18 05:28:08;;;;;;;11.77;3.78;;;;;;;9.36;100.00;101891.22;5038416;28;20024;-70
2024/02/18 05:30:33;;;;;;;13.82;4.13;;;;;;;9.35;100.00;101883.16;5021767;28;20112;-70
2024/02/18 05:32:59;;;;;;;12.68;4.10;;;;;;;9.37;100.00;101886.53;5005662;28;20021;-70
2024/02/18 05:35:24;;;;;;;13.63;4.30;;;;;;;9.37;100.00;101889.28;5055196;28;20037;-70
2024/02/18 05:37:50;;;;;;;10.82;3.78;;;;;;;9.38;100.00;101888.19;5022028;28;20041;-70
2024/02/18 05:40:15;;;;;;;10.88;4.25;;;;;;;9.37;100.00;101878.22;5038808;28;20033;-70
2024/02/18 05:42:41;;;;;;;12.18;4.07;;;;;;;9.42;100.00;101886.59;5046979;28;20018;-70
2024/02/18 05:45:07;;;;;;;14.38;4.15;;;;;;;9.43;100.00;101879.97;5034747;28;20033;-70
2024/02/18 05:47:32;;;;;;;13.05;3.63;;;;;;;9.44;100.00;101873.31;5053170;28;20059;-72
2024/02/18 05:49:58;;;;;;;10.88;3.70;;;;;;;9.44;100.00;101867.75;5029505;28;20497;-70
2024/02/18 05:52:23;;;;;;;10.60;3.60;;;;;;;9.44;100.00;101872.47;5047105;28;20021;-70
2024/02/18 05:54:49;;;;;;;19.67;4.70;;;;;;;9.44;100.00;101862.22;5037951;28;20034;-70
2024/02/18 05:57:14;;;;;;;10.40;3.50;;;;;;;9.45;100.00;101858.38;5038610;28;20036;-70
2024/02/18 05:59:40;;;;;;;15.63;4.18;;;;;;;9.45;100.00;101857.53;5055884;28;20036;-70
2024/02/18 06:02:05;;;;;;;10.10;3.42;;;;;;;9.45;100.00;101841.72;5037922;28;20021;-70
2024/02/18 06:04:31;;;;;;;11.88;3.50;;;;;;;9.46;100.00;101848.94;5038243;28;20029;-70
2024/02/18 06:06:57;;;;;;;9.32;4.03;;;;;;;9.47;100.00;101856.19;5038046;28;20021;-70
2024/02/18 06:09:23;;;;;;;13.27;4.07;;;;;;;9.47;100.00;101858.09;5038082;28;20029;-70
2024/02/18 06:11:49;;;;;;;11.00;3.40;;;;;;;9.46;100.00;101848.94;5037969;28;20036;-70
2024/02/18 06:14:15;;;;;;;11.40;3.17;;;;;;;9.49;100.00;101853.16;5020525;28;20389;-70
2024/02/18 06:16:40;;;;;;;10.45;2.95;;;;;;;9.47;100.00;101852.56;5022417;28;20059;-70
2024/02/18 06:19:06;;;;;;;19.58;3.60;;;;;;;9.48;100.00;101852.31;5024549;28;20151;-70
2024/02/18 06:21:31;;;;;;;14.73;2.97;;;;;;;9.49;100.00;101853.97;5054194;28;20043;-70
2024/02/18 06:23:57;;;;;;;13.35;3.08;;;;;;;9.50;100.00;101850.13;5021058;28;20037;-70
2024/02/18 06:26:23;;;;;;;12.10;3.00;;;;;;;9.47;100.00;101845.09;5052986;28;20516;-70
2024/02/18 06:28:48;;;;;;;7.88;3.10;;;;;;;9.50;100.00;101827.94;5026890;28;20057;-70
2024/02/18 06:31:14;;;;;;;16.05;3.10;;;;;;;9.52;100.00;101825.72;5020627;28;20067;-70
2024/02/18 06:33:45;;;;;;;11.10;3.03;;;;;;;9.51;100.00;101806.59;5037665;28;20036;-70
2024/02/18 06:36:11;;;;;;;12.55;3.10;;;;;;;9.52;100.00;101811.88;5021639;28;20082;-70
2024/02/18 06:38:36;;;;;;;12.95;2.80;;;;;;;9.51;100.00;101821.28;5020237;28;20045;-70
2024/02/18 06:41:02;;;;;;;13.25;3.10;;;;;;;9.54;100.00;101825.50;5020696;28;20035;-69
2024/02/18 06:43:28;;;;;;;14.52;3.22;;;;;;;9.53;100.00;101846.84;5038022;28;20434;-70
2024/02/18 06:45:53;;;;;;;7.47;2.58;;;;;;;9.56;100.00;101865.75;5036674;28;20032;-70
2024/02/18 06:48:19;;;;;;;13.95;2.90;;;;;;;9.57;100.00;101891.53;5030676;28;20059;-70
2024/02/18 06:50:44;;;;;;;15.50;3.10;;;;;;;9.56;100.00;101912.91;5040735;28;20031;-70
2024/02/18 06:53:12;;;;;;;14.00;2.70;;;;;;;9.58;100.00;101909.84;5054702;28;20028;-70
2024/02/18 06:55:38;;;;;;;13.88;3.20;;;;;;;9.57;100.00;101902.63;5053468;28;20031;-70
2024/02/18 06:58:03;;;;;;;11.82;2.70;;;;;;;9.55;100.00;101902.88;5040768;28;20020;-70
2024/02/18 07:00:29;;;;;;;7.70;2.20;;;;;;;9.56;100.00;101903.75;5057053;28;20483;-70
2024/02/18 07:02:54;;;;;;;10.52;2.75;;;;;;;9.57;100.00;101886.84;5056979;28;20031;-70
2024/02/18 07:05:20;;;;;;;10.68;2.15;;;;;;;9.56;100.00;101885.16;5056890;28;20048;-70
2024/02/18 07:07:46;;;;;;;9.82;2.45;;;;;;;9.57;100.00;101872.97;5057035;28;20059;-70
2024/02/18 07:10:11;;;;;;;13.80;2.90;;;;;;;9.60;100.00;101877.16;5057044;28;20036;-70
2024/02/18 07:12:37;;;;;;;8.75;2.17;;;;;;;9.59;100.00;101865.25;5073610;28;20037;-70
2024/02/18 07:15:02;;;;;;;8.88;2.30;;;;;;;9.60;100.00;101868.84;5040248;28;20028;-70
2024/02/18 07:17:28;;;;;;;8.18;2.75;;;;;;;9.60;100.00;101878.00;5056760;28;20162;-70
2024/02/18 07:19:54;;;;;;;10.05;2.40;;;;;;;9.62;100.00;101863.91;5040464;28;20062;-70
2024/02/18 07:22:20;;;;;;;8.30;2.60;;;;;;;9.60;100.00;101860.53;5057008;28;20485;-70
2024/02/18 07:24:45;;;;;;;10.10;2.22;;;;;;;9.62;100.00;101859.19;5040282;28;20028;-70
2024/02/18 07:27:11;;;;;;;8.13;2.30;;;;;;;9.61;100.00;101857.50;5040404;28;20025;-70
2024/02/18 07:29:36;;;;;;;8.82;2.10;;;;;;;9.62;100.00;101856.41;5056336;28;20029;-70
2024/02/18 07:32:02;;;;;;;6.60;1.75;;;;;;;9.61;100.00;101846.41;5056836;28;20044;-70
2024/02/18 07:34:28;;;;;;;7.97;2.25;;;;;;;9.65;100.00;101849.50;5056530;28;20100;-70
2024/02/18 07:36:56;;;;;;;8.45;1.80;;;;;;;9.65;100.00;101843.97;5056678;28;20576;-70
2024/02/18 07:39:21;;;;;;;11.60;1.90;;;;;;;9.68;100.00;101839.84;5057002;28;20081;-70
2024/02/18 07:41:47;;;;;;;10.38;2.13;;;;;;;9.68;100.00;101826.81;5056692;28;20485;-70
2024/02/18 07:44:13;;;;;;;8.77;1.73;;;;;;;9.66;100.00;101837.31;5020064;28;20712;-70
2024/02/18 07:46:40;;;;;;;7.28;1.77;;;;;;;9.68;100.00;101846.22;5046518;28;20048;-70
2024/02/18 07:49:06;;;;;;;8.25;1.67;;;;;;;9.68;100.00;101843.44;5090836;28;20048;-70
2024/02/18 07:51:32;;;;;;;8.07;1.75;;;;;;;9.68;100.00;101846.22;5049769;28;20556;-70
2024/02/18 07:53:57;;;;;;;8.70;2.10;;;;;;;9.68;100.00;101840.69;5059458;28;20028;-70
2024/02/18 07:56:23;;;;;;;6.38;1.65;;;;;;;9.67;100.00;101839.00;5058936;28;20024;-70
2024/02/18 07:58:48;;;;;;;7.40;1.75;;;;;;;9.70;100.00;101837.66;5078613;28;20024;-70
2024/02/18 08:01:14;;;;;;;10.25;2.17;;;;;;;9.70;100.00;101855.13;5065851;28;20054;-70
2024/02/18 08:03:39;;;;;;;8.68;1.52;;;;;;;9.71;100.00;101854.03;5054889;28;20024;-70
2024/02/18 08:06:07;;;;;;;8.52;2.15;;;;;;;9.77;100.00;101846.63;5049127;28;20081;-70
2024/02/18 08:08:32;;;;;;;14.98;1.75;;;;;;;9.76;100.00;101856.88;5031924;28;20054;-70
2024/02/18 08:10:58;;;;;;;7.32;1.70;;;;;;;9.76;100.00;101859.66;5087421;28;20491;-70
2024/02/18 08:13:23;;;;;;;8.82;1.75;;;;;;;9.76;100.00;101864.38;5053928;28;20086;-70
2024/02/18 08:15:49;;;;;;;11.05;2.00;;;;;;;9.79;100.00;101872.19;5059805;28;20036;-70
2024/02/18 08:18:15;;;;;;;11.63;1.70;;;;;;;9.82;100.00;101880.00;5061910;28;20027;-70
2024/02/18 08:20:40;;;;;;;9.93;1.60;;;;;;;9.82;100.00;101868.91;5049614;28;20059;-70
2024/02/18 08:23:06;;;;;;;9.40;1.80;;;;;;;9.86;100.00;101867.28;5059710;28;20029;-71
2024/02/18 08:25:32;;;;;;;6.57;1.80;;;;;;;9.88;100.00;101870.63;5078890;28;20035;-70
2024/02/18 08:28:00;;;;;;;8.70;1.70;;;;;;;9.91;100.00;101874.84;5046541;28;20464;-70
2024/02/18 08:30:25;;;;;;;7.72;1.65;;;;;;;9.91;100.00;101883.16;5061621;28;20032;-71
2024/02/18 08:32:51;;;;;;;9.05;1.60;;;;;;;9.92;100.00;101882.91;5047254;28;20032;-70
2024/02/18 08:35:17;;;;;;;5.88;1.35;;;;;;;9.94;100.00;101893.75;5056128;28;20031;-70
2024/02/18 08:37:42;;;;;;;9.27;1.80;;;;;;;9.94;100.00;101894.56;5037866;28;20146;-70
2024/02/18 08:40:10;;;;;;;6.53;1.38;;;;;;;10.00;100.00;101898.25;5071698;28;20043;-70
2024/02/18 08:42:36;;;;;;;7.88;1.83;;;;;;;9.98;100.00;101901.31;5071565;28;20051;-70
2024/02/18 08:45:02;;;;;;;9.52;1.83;;;;;;;10.01;100.00;101903.56;5054085;28;20036;-70
2024/02/18 08:47:27;;;;;;;4.47;1.30;;;;;;;10.02;100.00;101934.94;5054265;28;20044;-70
2024/02/18 08:49:53;;;;;;;7.95;1.60;;;;;;;10.03;100.00;101931.09;5038170;28;20097;-71
2024/02/18 08:52:18;;;;;;;5.22;1.40;;;;;;;10.06;100.00;101936.97;5053968;28;20072;-70
2024/02/18 08:54:44;;;;;;;6.95;1.55;;;;;;;10.06;100.00;101939.72;5058254;28;20031;-70
2024/02/18 08:57:09;;;;;;;8.18;4.50;;;;;;;10.09;100.00;101938.38;5088922;28;20036;-71
2024/02/18 08:59:35;;;;;;;7.47;2.38;;;;;;;10.09;100.00;101940.31;5049122;28;20092;-70
2024/02/18 09:02:00;;;;;;;5.75;2.10;;;;;;;10.09;100.00;101921.72;5068403;28;20098;-70
2024/02/18 09:04:26;;;;;;;4.85;2.30;;;;;;;10.09;100.00;101927.28;5106810;28;20024;-70
2024/02/18 09:06:52;;;;;;;7.85;2.42;;;;;;;10.11;100.00;101915.91;5063559;28;20032;-70
2024/02/18 09:09:18;;;;;;;6.03;1.90;;;;;;;10.13;100.00;101906.22;5068209;28;20054;-70
2024/02/18 09:11:44;;;;;;;6.13;2.78;;;;;;;10.17;100.00;101874.09;5060112;28;20070;-70
2024/02/18 09:14:10;;;;;;;4.95;1.95;;;;;;;10.17;100.00;101876.00;5067904;28;20040;-70
2024/02/18 09:16:35;;;;;;;10.40;2.03;;;;;;;10.20;100.00;101875.50;5063172;28;20032;-70
2024/02/18 09:19:01;;;;;;;5.03;1.75;;;;;;;10.17;100.00;101870.44;5050592;28;20155;-72
2024/02/18 09:21:26;;;;;;;6.43;1.83;;;;;;;10.21;100.00;101854.97;5073472;28;20043;-71
2024/02/18 09:23:52;;;;;;;5.38;1.55;;;;;;;10.21;100.00;101835.53;5077032;28;20051;-71
2024/02/18 09:26:17;;;;;;;7.25;2.17;;;;;;;10.24;100.00;101826.69;5071950;28;20032;-71
2024/02/18 09:28:43;;;;;;;4.70;1.70;;;;;;;10.25;100.00;101812.56;5065952;28;20039;-70
2024/02/18 09:31:08;;;;;;;6.75;1.80;;;;;;;10.27;100.00;101817.88;5072390;28;20036;-70
2024/02/18 09:33:34;;;;;;;5.65;1.45;;;;;;;10.28;100.00;101794.56;5046378;28;20033;-70
2024/02/18 09:36:00;;;;;;;5.03;1.75;;;;;;;10.28;100.00;101784.28;5079215;28;20024;-71
2024/02/18 09:38:26;;;;;;;8.43;1.60;;;;;;;10.29;100.00;101768.47;5045631;28;20381;-71
2024/02/18 09:40:51;;;;;;;8.80;2.00;;;;;;;10.32;100.00;101754.06;5062992;28;20498;-70
2024/02/18 09:43:17;;;;;;;3.75;1.55;;;;;;;10.35;100.00;101747.16;5050695;28;20021;-70
2024/02/18 09:45:43;;;;;;;6.88;1.25;;;;;;;10.40;100.00;101747.19;5062936;28;20031;-70
2024/02/18 09:48:09;;;;;;;2.80;1.10;;;;;;;10.41;100.00;101755.25;5067465;28;20048;-70
2024/02/18 09:50:35;;;;;;;3.78;1.50;;;;;;;10.41;100.00;101784.97;5079050;28;20451;-70
2024/02/18 09:53:03;;;;;;;6.57;1.48;;;;;;;10.42;100.00;101818.06;5048331;28;20111;-71
2024/02/18 09:55:28;;;;;;;4.07;1.38;;;;;;;10.45;100.00;101853.63;5050361;28;20042;-71
2024/02/18 09:57:54;;;;;;;4.78;1.25;;;;;;;10.45;100.00;101856.41;5076804;28;20020;-70
2024/02/18 10:00:20;;;;;;;5.22;1.50;;;;;;;10.46;100.00;101862.78;5078997;28;20551;-71
2024/02/18 10:02:45;;;;;;;8.52;1.90;;;;;;;10.50;100.00;101844.50;5073706;28;20027;-70
2024/02/18 10:05:11;;;;;;;3.53;1.52;;;;;;;10.48;100.00;101847.56;5073304;28;20024;-70
2024/02/18 10:07:40;;;;;;;6.22;1.55;;;;;;;10.48;100.00;101853.09;5066686;28;20032;-71
2024/02/18 10:10:07;;;;;;;4.55;1.13;;;;;;;10.51;100.00;101865.63;5053420;28;20028;-71
2024/02/18 10:12:33;;;;;;;5.38;1.90;;;;;;;10.51;100.00;101872.03;5068155;28;20721;-71
2024/02/18 10:15:01;;;;;;;5.95;1.38;;;;;;;10.56;100.00;101873.16;5069963;28;20024;-71
2024/02/18 10:17:27;;;;;;;3.03;1.20;;;;;;;10.48;100.00;101864.22;5064498;28;20024;-71
2024/02/18 10:19:52;;;;;;;4.95;1.40;;;;;;;10.52;100.00;101868.13;5069890;28;20031;-71
2024/02/18 10:22:21;;;;;;;6.00;1.50;;;;;;;10.53;100.00;101866.22;5057920;28;20028;-71
2024/02/18 10:24:46;;;;;;;4.43;1.42;;;;;;;10.55;100.00;101864.00;5084612;28;20653;-71
2024/02/18 10:27:11;;;;;;;5.05;1.38;;;;;;;10.55;100.00;101866.78;5049996;28;20059;-71
2024/02/18 10:29:37;;;;;;;3.90;1.35;;;;;;;10.52;100.00;101872.84;5067807;28;20538;-71
2024/02/18 10:35:43;;;;;;;4.93;1.42;;;;;;;10.55;100.00;101889.00;5072467;28;20460;-70
2024/02/18 10:38:09;;;;;;;4.60;1.52;;;;;;;10.54;100.00;101889.28;5061411;28;20028;-70
2024/02/18 10:40:37;;;;;;;2.50;1.25;;;;;;;10.55;100.00;101882.63;5065607;28;20079;-70
2024/02/18 10:43:04;;;;;;;3.08;1.15;;;;;;;10.55;100.00;101888.16;5045109;28;20032;-72
2024/02/18 10:45:30;;;;;;;6.75;1.42;;;;;;;10.55;100.00;101882.63;5054540;28;20099;-70
2024/02/18 10:47:59;;;;;;;3.60;1.30;;;;;;;10.58;100.00;101887.66;5059679;28;20041;-70
2024/02/18 10:50:28;;;;;;;5.15;1.50;;;;;;;10.61;100.00;101876.00;5057417;28;20037;-70
2024/02/18 10:53:15;;;;;;;2.97;1.38;;;;;;;10.61;100.00;101881.56;5073461;28;20040;-71
2024/02/18 10:56:04;;;;;;;1.77;1.38;;;;;;;10.62;100.00;101881.31;5057096;28;20036;-73
2024/02/18 10:58:39;;;;;;;3.97;1.27;;;;;;;10.63;100.00;101882.16;5070622;28;20045;-71
2024/02/18 11:01:04;;;;;;;4.50;1.25;;;;;;;10.64;100.00;101883.81;5073291;28;20036;-71
2024/02/18 11:03:37;;;;;;;3.72;1.10;;;;;;;10.67;100.00;101874.97;5048115;28;20032;-71
2024/02/18 11:06:03;;;;;;;2.50;1.10;;;;;;;10.70;100.00;101874.47;5063383;28;20043;-71
2024/02/18 11:08:29;;;;;;;4.10;1.55;;;;;;;10.72;100.00;101873.06;5042682;28;20402;-71
2024/02/18 11:10:55;;;;;;;3.75;1.63;;;;;;;10.74;100.00;101870.03;5040820;28;20036;-71
2024/02/18 11:13:21;;;;;;;3.03;1.33;;;;;;;10.82;100.00;101872.34;5073649;28;20078;-71
2024/02/18 11:15:47;;;;;;;4.28;1.20;;;;;;;10.85;100.00;101877.38;5056710;28;20541;-71